| |
Missouri Department of Transportation

Social Media Facebook Twitter Flickr Instagram YouTube RSS

Current AWOS Information

 
AWOS Home - General Info for all Airports
Current AWOS for all Airports - Current METAR for all Airports
Glossary - Disclaimer - Other Links


WARSAW--WARSAW MUNICIPAL--KRAW
 
Recent AWOS History
 
02/28/17     04:12 AM CST      10:12 GMT
Air Temperature 60°F (16°C ) 1st Cloud Layer Overcast at 1,500 feet
Dew Point 55°F (13°C) 2nd Cloud Layer  
Barometric Pressure 29.77 in Hg. 3rd Cloud Layer  
Wind Speed 13 mph (12 knots) Density Altitude  
Peak Wind Gusts 20 mph (18 knots) Variable Wind Directions  
Wind Direction Quadrant(180°) Variable Visibility  
Visibility 10 statute miles  

Thunderstorm and Precipitation Identification: 
Thunderstorm Remarks:  Lightning Distant South-East

Current METAR Record: METAR KRAW 281014Z AUTO 18011G18KT 10SM OVC015 15/13 A2977 RMK AO2 LTG DSNT SE

 

 

 

About Us
How Do I...
Contact Us
Missouri Department of Transportation
Central Office
105 W. Capitol Avenue
Jefferson City, MO 65102
1-888-ASK-MODOT (275-6636)
1-866-831-6277 (Motor Carrier Services)
Driver's License Offices
horz_bar
| | |
Missouri State Government
© 2013 Missouri Department of Transportation. All Rights Reserved.   Privacy Policy.
 
 
 
 
RSS FeedYoutubeBlogFlickrTwitter Facebook